< < Back
Terminal Aerodrome Forecast


Current Version              Previous Versions:   1  2  3  4  5  6  7  8  9  

Terminal Aerodrome Forecast

587
FTUS42 KGSP 311121
TAFAVL
TAF
KAVL 311121Z 3112/0112 34005KT P6SM OVC050
     FM312100 32006KT P6SM VCSH SCT040 OVC070
     FM010200 32011KT P6SM -RA BKN040 OVC080
     FM010500 32013KT P6SM -RASN BKN025
     FM010700 32014KT P6SM -SHSN BKN016
      TEMPO 0109/0112 3SM -SN BKN008=

Latest METAR

250
SAUS70 KWBC 311800
MTRAVL
METAR KAVL 311754Z 00000KT 10SM SCT050 OVC100 13/03 A2985 RMK AO2 SLP104
T01280028 10133 20017 58029


USA.gov is the U.S. government's official web portal to all federal, state and local government web resources and services.